Nyk Maria — 3FER3 — position and weather

sailwx.info

Track history (hours):
 
Tides and Currents Weather Stations Pressure Air Temp Water Temp Dewpoint Dewpoint Depression Visibility Wind Speed Wind Dir Waves Ship Positions

Nyk Maria

Last reported at 2017-Sep-15 05:59 UTC. Time now 2017-Sep-20 21:52 UTC.
Position N 26°41' W 114°42'.

Length 210 m; draft 8.3 m.

Type: Cargo ship. MMSI: 354918000.

Date/timePositionNaut miles runAvg speedWind from/ knotsBaromVisibWave heightAir tempDewpointWater temp
2017-Sep-15 05:59N 26°41' W 114°42'35817.6
2017-Sep-14 09:35N 32°09' W 117°27'115.8
2017-Sep-14 09:30N 32°10' W 117°27'815.5
2017-Sep-14 09:00N 32°18' W 117°31'815.5
2017-Sep-14 08:30N 32°25' W 117°34'815.2
2017-Sep-14 08:00N 32°32' W 117°37'815.2
2017-Sep-14 07:30N 32°39' W 117°41'815.5
2017-Sep-14 07:00N 32°46' W 117°45'815.5
2017-Sep-14 06:30N 32°53' W 117°50'815.7
2017-Sep-14 06:01N 32°59' W 117°55'815.7
2017-Sep-14 05:30N 33°06' W 117°59'815.9
2017-Sep-14 05:01N 33°13' W 118°03'714.5
2017-Sep-14 04:31N 33°20' W 118°07'612.3
2017-Sep-14 04:00N 33°26' W 118°09'612.6
2017-Sep-14 03:31N 33°32' W 118°11'612.4
2017-Sep-14 03:00N 33°38' W 118°12'5 9.4
2017-Sep-14 02:30N 33°42' W 118°15'3 5.7
2017-Sep-14 02:00N 33°45' W 118°17'1 2.4
2017-Sep-14 01:28N 33°46' W 118°15'0 0.1
2017-Sep-14 00:50N 33°46' W 118°15'0 0.0
2017-Sep-14 00:23N 33°46' W 118°15'0 0.0
2017-Sep-13 23:53N 33°46' W 118°15'0 0.0
2017-Sep-13 23:26N 33°46' W 118°15'0 0.0
2017-Sep-13 21:38N 33°46' W 118°15'0 0.0
2017-Sep-13 21:20N 33°46' W 118°15'0 0.0
2017-Sep-13 20:02N 33°46' W 118°15'0 0.0
2017-Sep-13 19:44N 33°46' W 118°15'0 0.0
2017-Sep-13 18:50N 33°46' W 118°15'0 0.0
2017-Sep-13 08:55N 33°46' W 118°15'0 0.0
2017-Sep-13 08:13N 33°46' W 118°15'0 0.0
2017-Sep-13 07:55N 33°46' W 118°15'0 0.0
2017-Sep-13 07:13N 33°46' W 118°15'0 0.0
2017-Sep-13 06:49N 33°46' W 118°15'0 0.0
2017-Sep-13 06:29N 33°46' W 118°15'0 0.0
2017-Sep-13 05:53N 33°46' W 118°15'0 0.0
2017-Sep-13 05:26N 33°46' W 118°15'0 0.0
2017-Sep-13 04:59N 33°46' W 118°15'0 0.0
2017-Sep-13 04:25N 33°46' W 118°15'0 0.0
2017-Sep-13 03:59N 33°46' W 118°15'0 0.0
2017-Sep-13 03:28N 33°46' W 118°15'0 0.0
2017-Sep-13 02:44N 33°46' W 118°15'0 0.1
2017-Sep-13 02:25N 33°46' W 118°15'0 0.0
2017-Sep-13 01:55N 33°46' W 118°15'0 0.0
2017-Sep-13 01:29N 33°46' W 118°15'0 0.0
2017-Sep-13 00:55N 33°46' W 118°15'0 0.0
2017-Sep-13 00:25N 33°46' W 118°15'0 0.0
2017-Sep-12 23:58N 33°46' W 118°15'0 0.0
2017-Sep-12 23:28N 33°46' W 118°15'0 0.0
2017-Sep-12 22:58N 33°46' W 118°15'1 1.7
2017-Sep-12 22:30N 33°45' W 118°16'3 5.1
2017-Sep-12 22:00N 33°43' W 118°15'4 8.4
2017-Sep-12 21:30N 33°39' W 118°13'3 6.2
2017-Sep-12 20:59N 33°36' W 118°10'4 8.0
2017-Sep-12 20:30N 33°33' W 118°09'4 7.4
2017-Sep-12 20:00N 33°29' W 118°07'4 7.1
2017-Sep-12 19:30N 33°26' W 118°05'4 7.7
2017-Sep-12 19:00N 33°22' W 118°04'5 9.6
2017-Sep-12 18:30N 33°18' W 118°02'5 9.8
2017-Sep-12 18:00N 33°13' W 118°00'510.7
2017-Sep-12 17:30N 33°08' W 117°58'510.7
2017-Sep-12 17:00N 33°04' W 117°55'510.0
2017-Sep-12 16:30N 32°59' W 117°52'510.1
2017-Sep-12 16:00N 32°55' W 117°49'510.1
2017-Sep-12 15:30N 32°50' W 117°47'510.1
2017-Sep-12 15:00N 32°46' W 117°44'5 9.2
2017-Sep-12 14:30N 32°42' W 117°42'510.3
2017-Sep-12 14:00N 32°37' W 117°39'612.3
2017-Sep-12 13:30N 32°31' W 117°37'611.8
2017-Sep-12 13:00N 32°26' W 117°34'611.8
2017-Sep-12 12:30N 32°20' W 117°32'612.3
2017-Sep-12 12:00N 32°14' W 117°29'712.4
2017-Sep-12 11:25N 32°07' W 117°27'511.9
2017-Sep-12 11:00N 32°03' W 117°25'612.1
2017-Sep-12 10:30N 31°57' W 117°22'814.2
2017-Sep-12 09:56N 31°49' W 117°19'717.1
2017-Sep-12 09:30N 31°42' W 117°16'817.1
2017-Sep-12 09:01N 31°34' W 117°13'917.5
2017-Sep-12 08:30N 31°26' W 117°10'917.3
2017-Sep-12 08:00N 31°18' W 117°06'917.8
2017-Sep-12 07:30N 31°10' W 117°03'918.1
2017-Sep-12 06:59N 31°01' W 116°59'1817.9
2017-Sep-12 05:59N 30°44' W 116°52'  
Track history (hours):
 
Tides and Currents Weather Stations Pressure Air Temp Water Temp Dewpoint Dewpoint Depression Visibility Wind Speed Wind Dir Waves Ship Positions

Nyk Maria

Last reported at 2017-Sep-15 05:59 UTC. Time now 2017-Sep-20 21:52 UTC.
Position N 26°41' W 114°42'.

Length 210 m; draft 8.3 m.

Type: Cargo ship. MMSI: 354918000.

Date/timePositionNaut miles runAvg speedWind from/ knotsBaromVisibWave heightAir tempDewpointWater temp
2017-Sep-15 05:59N 26°41' W 114°42'35817.6
2017-Sep-14 09:35N 32°09' W 117°27'115.8
2017-Sep-14 09:30N 32°10' W 117°27'815.5
2017-Sep-14 09:00N 32°18' W 117°31'815.5
2017-Sep-14 08:30N 32°25' W 117°34'815.2
2017-Sep-14 08:00N 32°32' W 117°37'815.2
2017-Sep-14 07:30N 32°39' W 117°41'815.5
2017-Sep-14 07:00N 32°46' W 117°45'815.5
2017-Sep-14 06:30N 32°53' W 117°50'815.7
2017-Sep-14 06:01N 32°59' W 117°55'815.7
2017-Sep-14 05:30N 33°06' W 117°59'815.9
2017-Sep-14 05:01N 33°13' W 118°03'714.5
2017-Sep-14 04:31N 33°20' W 118°07'612.3
2017-Sep-14 04:00N 33°26' W 118°09'612.6
2017-Sep-14 03:31N 33°32' W 118°11'612.4
2017-Sep-14 03:00N 33°38' W 118°12'5 9.4
2017-Sep-14 02:30N 33°42' W 118°15'3 5.7
2017-Sep-14 02:00N 33°45' W 118°17'1 2.4
2017-Sep-14 01:28N 33°46' W 118°15'0 0.1
2017-Sep-14 00:50N 33°46' W 118°15'0 0.0
2017-Sep-14 00:23N 33°46' W 118°15'0 0.0
2017-Sep-13 23:53N 33°46' W 118°15'0 0.0
2017-Sep-13 23:26N 33°46' W 118°15'0 0.0
2017-Sep-13 21:38N 33°46' W 118°15'0 0.0
2017-Sep-13 21:20N 33°46' W 118°15'0 0.0
2017-Sep-13 20:02N 33°46' W 118°15'0 0.0
2017-Sep-13 19:44N 33°46' W 118°15'0 0.0
2017-Sep-13 18:50N 33°46' W 118°15'0 0.0
2017-Sep-13 08:55N 33°46' W 118°15'0 0.0
2017-Sep-13 08:13N 33°46' W 118°15'0 0.0
2017-Sep-13 07:55N 33°46' W 118°15'0 0.0
2017-Sep-13 07:13N 33°46' W 118°15'0 0.0
2017-Sep-13 06:49N 33°46' W 118°15'0 0.0
2017-Sep-13 06:29N 33°46' W 118°15'0 0.0
2017-Sep-13 05:53N 33°46' W 118°15'0 0.0
2017-Sep-13 05:26N 33°46' W 118°15'0 0.0
2017-Sep-13 04:59N 33°46' W 118°15'0 0.0
2017-Sep-13 04:25N 33°46' W 118°15'0 0.0
2017-Sep-13 03:59N 33°46' W 118°15'0 0.0
2017-Sep-13 03:28N 33°46' W 118°15'0 0.0
2017-Sep-13 02:44N 33°46' W 118°15'0 0.1
2017-Sep-13 02:25N 33°46' W 118°15'0 0.0
2017-Sep-13 01:55N 33°46' W 118°15'0 0.0
2017-Sep-13 01:29N 33°46' W 118°15'0 0.0
2017-Sep-13 00:55N 33°46' W 118°15'0 0.0
2017-Sep-13 00:25N 33°46' W 118°15'0 0.0
2017-Sep-12 23:58N 33°46' W 118°15'0 0.0
2017-Sep-12 23:28N 33°46' W 118°15'0 0.0
2017-Sep-12 22:58N 33°46' W 118°15'1 1.7
2017-Sep-12 22:30N 33°45' W 118°16'3 5.1
2017-Sep-12 22:00N 33°43' W 118°15'4 8.4
2017-Sep-12 21:30N 33°39' W 118°13'3 6.2
2017-Sep-12 20:59N 33°36' W 118°10'4 8.0
2017-Sep-12 20:30N 33°33' W 118°09'4 7.4
2017-Sep-12 20:00N 33°29' W 118°07'4 7.1
2017-Sep-12 19:30N 33°26' W 118°05'4 7.7
2017-Sep-12 19:00N 33°22' W 118°04'5 9.6
2017-Sep-12 18:30N 33°18' W 118°02'5 9.8
2017-Sep-12 18:00N 33°13' W 118°00'510.7
2017-Sep-12 17:30N 33°08' W 117°58'510.7
2017-Sep-12 17:00N 33°04' W 117°55'510.0
2017-Sep-12 16:30N 32°59' W 117°52'510.1
2017-Sep-12 16:00N 32°55' W 117°49'510.1
2017-Sep-12 15:30N 32°50' W 117°47'510.1
2017-Sep-12 15:00N 32°46' W 117°44'5 9.2
2017-Sep-12 14:30N 32°42' W 117°42'510.3
2017-Sep-12 14:00N 32°37' W 117°39'612.3
2017-Sep-12 13:30N 32°31' W 117°37'611.8
2017-Sep-12 13:00N 32°26' W 117°34'611.8
2017-Sep-12 12:30N 32°20' W 117°32'612.3
2017-Sep-12 12:00N 32°14' W 117°29'712.4
2017-Sep-12 11:25N 32°07' W 117°27'511.9
2017-Sep-12 11:00N 32°03' W 117°25'612.1
2017-Sep-12 10:30N 31°57' W 117°22'814.2
2017-Sep-12 09:56N 31°49' W 117°19'717.1
2017-Sep-12 09:30N 31°42' W 117°16'817.1
2017-Sep-12 09:01N 31°34' W 117°13'917.5
2017-Sep-12 08:30N 31°26' W 117°10'917.3
2017-Sep-12 08:00N 31°18' W 117°06'917.8
2017-Sep-12 07:30N 31°10' W 117°03'918.1
2017-Sep-12 06:59N 31°01' W 116°59'1817.9
2017-Sep-12 05:59N 30°44' W 116°52'  

Dump ship's entire track history